createdAt,value
2022-10-02T00:00:00.913Z,11.68
2022-10-02T00:03:31.260Z,11.71
2022-10-02T00:06:40.098Z,11.66
2022-10-02T00:09:50.166Z,11.60
2022-10-02T00:13:00.867Z,11.54
2022-10-02T00:16:09.309Z,11.53
2022-10-02T00:19:21.938Z,11.46
2022-10-02T00:22:24.379Z,11.39
2022-10-02T00:25:39.493Z,11.34
2022-10-02T00:28:51.692Z,11.53
2022-10-02T00:32:11.007Z,11.65
2022-10-02T00:35:34.055Z,11.82
2022-10-02T00:38:56.461Z,12.04
2022-10-02T00:42:10.550Z,12.16
2022-10-02T00:45:37.361Z,12.31
2022-10-02T00:48:42.210Z,12.42
2022-10-02T00:52:05.386Z,12.52
2022-10-02T00:55:14.834Z,12.77
2022-10-02T00:58:32.934Z,13.03
2022-10-02T01:01:46.967Z,13.19
2022-10-02T01:04:50.939Z,13.19
2022-10-02T01:07:55.544Z,13.12
2022-10-02T01:11:00.917Z,13.07
2022-10-02T01:14:04.034Z,12.95
2022-10-02T01:17:11.525Z,12.91
2022-10-02T01:20:18.521Z,12.85
2022-10-02T01:23:21.493Z,12.83
2022-10-02T01:26:25.163Z,12.80
2022-10-02T01:29:29.293Z,12.81
2022-10-02T01:32:32.404Z,12.84
2022-10-02T01:35:36.876Z,12.94
2022-10-02T01:38:41.968Z,12.99
2022-10-02T01:41:45.470Z,13.16
2022-10-02T01:44:48.709Z,13.20
2022-10-02T01:48:12.163Z,13.22
2022-10-02T01:51:30.702Z,13.13
2022-10-02T01:54:35.638Z,13.05
2022-10-02T01:57:47.820Z,13.03
2022-10-02T02:01:14.311Z,12.96
2022-10-02T02:04:23.565Z,12.86
2022-10-02T02:07:30.829Z,12.76
2022-10-02T02:10:43.791Z,12.64
2022-10-02T02:14:00.867Z,12.52
2022-10-02T02:21:00.541Z,12.37
2022-10-02T02:24:33.249Z,12.39
2022-10-02T02:31:34.728Z,12.29
2022-10-02T02:34:48.905Z,12.26
2022-10-02T02:37:58.650Z,12.25
2022-10-02T02:41:17.004Z,12.26
2022-10-02T02:44:50.747Z,12.26
2022-10-02T02:51:37.111Z,12.24
2022-10-02T03:01:35.935Z,12.14
2022-10-02T03:04:38.860Z,12.20
2022-10-02T03:07:47.329Z,12.13
2022-10-02T03:10:55.795Z,12.09
2022-10-02T03:14:08.325Z,12.02
2022-10-02T03:17:17.150Z,12.05
2022-10-02T03:20:28.185Z,12.01
2022-10-02T03:23:35.414Z,11.97
2022-10-02T03:26:44.094Z,11.92
2022-10-02T03:29:55.059Z,11.90
2022-10-02T03:33:01.216Z,11.93
2022-10-02T03:36:05.294Z,11.98
2022-10-02T03:39:26.291Z,12.04
2022-10-02T03:42:34.192Z,12.08
2022-10-02T03:45:50.963Z,12.09
2022-10-02T03:48:56.563Z,12.14
2022-10-02T03:51:59.744Z,12.19
2022-10-02T03:55:05.254Z,12.18
2022-10-02T03:58:12.885Z,12.19
2022-10-02T04:01:27.316Z,12.17
2022-10-02T04:04:43.275Z,12.14
2022-10-02T04:07:52.480Z,12.17
2022-10-02T04:11:03.694Z,12.22
2022-10-02T04:14:13.634Z,12.25
2022-10-02T04:17:22.039Z,12.23
2022-10-02T04:20:34.559Z,12.28
2022-10-02T04:23:44.923Z,12.22
2022-10-02T04:27:00.837Z,12.15
2022-10-02T04:30:07.425Z,12.08
2022-10-02T04:33:17.592Z,12.07
2022-10-02T04:36:23.144Z,12.10
2022-10-02T04:39:36.267Z,12.13
2022-10-02T04:42:45.287Z,12.14
2022-10-02T04:46:06.216Z,12.16
2022-10-02T04:49:17.865Z,12.19
2022-10-02T04:52:22.884Z,12.27
2022-10-02T04:55:36.855Z,12.30
2022-10-02T04:58:40.372Z,12.32
2022-10-02T05:02:02.698Z,12.29
2022-10-02T05:05:09.409Z,12.33
2022-10-02T05:08:31.228Z,12.31
2022-10-02T05:11:37.361Z,12.28
2022-10-02T05:14:45.441Z,12.39
2022-10-02T05:17:48.844Z,12.51
2022-10-02T05:21:04.909Z,12.56
2022-10-02T05:24:18.983Z,12.55
2022-10-02T05:27:40.228Z,12.62
2022-10-02T05:30:53.289Z,12.67
2022-10-02T05:34:15.648Z,12.71
2022-10-02T05:37:18.128Z,12.75
2022-10-02T05:40:32.712Z,12.84
2022-10-02T05:43:55.241Z,12.90
2022-10-02T05:46:59.000Z,12.91
2022-10-02T05:50:22.111Z,12.92
2022-10-02T05:53:30.434Z,13.00
2022-10-02T05:56:36.779Z,13.09
2022-10-02T06:00:12.396Z,13.08
2022-10-02T06:03:20.664Z,13.13
2022-10-02T06:06:44.833Z,13.17
2022-10-02T06:09:58.907Z,13.12
2022-10-02T06:13:18.940Z,13.16
2022-10-02T06:16:24.073Z,13.15
2022-10-02T06:19:30.912Z,13.12
2022-10-02T06:22:37.390Z,13.21
2022-10-02T06:25:45.492Z,13.33
2022-10-02T06:29:30.166Z,13.36
2022-10-02T06:32:37.503Z,13.41
2022-10-02T06:35:46.237Z,13.50
2022-10-02T06:38:58.196Z,13.64
2022-10-02T06:42:19.612Z,13.75
2022-10-02T06:45:32.694Z,13.80
2022-10-02T06:48:38.779Z,13.85
2022-10-02T06:51:47.773Z,13.98
2022-10-02T06:55:12.307Z,14.04
2022-10-02T06:58:18.907Z,14.07
2022-10-02T07:01:30.845Z,14.14
2022-10-02T07:04:56.034Z,14.22
2022-10-02T07:08:08.266Z,14.30
2022-10-02T07:11:11.250Z,14.32
2022-10-02T07:14:20.984Z,14.36
2022-10-02T07:17:41.483Z,14.36
2022-10-02T07:20:58.706Z,14.42
2022-10-02T07:24:20.255Z,14.40
2022-10-02T07:27:49.491Z,14.42
2022-10-02T07:30:52.210Z,14.50
2022-10-02T07:34:13.606Z,14.59
2022-10-02T07:37:33.905Z,14.71
2022-10-02T07:40:42.133Z,14.67
2022-10-02T07:43:47.078Z,14.80
2022-10-02T07:47:08.327Z,14.85
2022-10-02T07:50:18.202Z,14.96
2022-10-02T07:53:40.288Z,15.11
2022-10-02T07:56:45.777Z,15.33
2022-10-02T07:59:50.170Z,15.53
2022-10-02T08:02:52.372Z,15.50
2022-10-02T08:05:55.878Z,15.54
2022-10-02T08:09:04.271Z,15.58
2022-10-02T08:12:12.697Z,15.51
2022-10-02T08:15:17.086Z,15.58
2022-10-02T08:18:42.510Z,15.80
2022-10-02T08:21:57.512Z,15.80
2022-10-02T08:25:03.772Z,15.88
2022-10-02T08:28:21.309Z,15.97
2022-10-02T08:31:24.414Z,16.10
2022-10-02T08:34:27.900Z,16.04
2022-10-02T08:37:38.540Z,16.12
2022-10-02T08:40:44.616Z,16.28
2022-10-02T08:44:02.182Z,16.40
2022-10-02T08:47:23.159Z,16.46
2022-10-02T08:50:39.511Z,16.44
2022-10-02T08:53:47.996Z,16.36
2022-10-02T08:56:53.267Z,16.40
2022-10-02T09:00:17.418Z,16.48
2022-10-02T09:03:30.046Z,16.37
2022-10-02T09:06:31.985Z,16.67
2022-10-02T09:09:43.432Z,16.61
2022-10-02T09:12:48.771Z,16.68
2022-10-02T09:16:06.059Z,16.83
2022-10-02T09:19:23.294Z,16.85
2022-10-02T09:22:35.729Z,16.64
2022-10-02T09:25:56.004Z,16.63
2022-10-02T09:29:07.379Z,16.73
2022-10-02T09:32:10.550Z,16.88
2022-10-02T09:35:23.841Z,16.93
2022-10-02T09:38:42.361Z,17.05
2022-10-02T09:41:52.111Z,17.22
2022-10-02T09:45:03.861Z,17.45
2022-10-02T09:48:12.218Z,17.70
2022-10-02T09:51:14.980Z,17.75
2022-10-02T09:54:36.575Z,17.70
2022-10-02T09:57:54.886Z,17.65
2022-10-02T10:01:08.027Z,17.43
2022-10-02T10:04:22.986Z,17.53
2022-10-02T10:07:43.755Z,17.72
2022-10-02T10:11:09.642Z,17.65
2022-10-02T10:14:21.435Z,17.72
2022-10-02T10:17:32.686Z,17.96
2022-10-02T10:20:36.853Z,17.92
2022-10-02T10:23:39.357Z,17.62
2022-10-02T10:27:08.206Z,17.34
2022-10-02T10:30:29.463Z,17.38
2022-10-02T10:33:37.881Z,17.56
2022-10-02T10:37:02.271Z,17.61
2022-10-02T10:40:14.689Z,17.86
2022-10-02T10:43:29.455Z,18.02
2022-10-02T10:46:48.117Z,18.17
2022-10-02T10:49:59.663Z,18.01
2022-10-02T10:53:14.374Z,17.95
2022-10-02T10:56:37.588Z,17.48
2022-10-02T10:59:59.269Z,17.41
2022-10-02T11:03:17.649Z,17.25
2022-10-02T11:06:52.766Z,17.32
2022-10-02T11:09:55.861Z,17.23
2022-10-02T11:12:57.864Z,17.16
2022-10-02T11:16:19.201Z,17.04
2022-10-02T11:19:41.699Z,17.03
2022-10-02T11:23:12.777Z,17.06
2022-10-02T11:26:32.627Z,16.99
2022-10-02T11:29:38.970Z,16.79
2022-10-02T11:32:51.760Z,16.85
2022-10-02T11:36:10.706Z,17.19
2022-10-02T11:39:22.863Z,17.70
2022-10-02T11:42:40.979Z,17.75
2022-10-02T11:45:49.732Z,17.80
2022-10-02T11:49:04.552Z,17.73
2022-10-02T11:52:28.538Z,17.45
2022-10-02T11:55:33.866Z,17.35
2022-10-02T11:58:43.557Z,17.36
2022-10-02T12:02:03.574Z,17.22
2022-10-02T12:05:13.047Z,17.29
2022-10-02T12:08:41.342Z,17.37
2022-10-02T12:12:02.944Z,17.65
2022-10-02T12:15:28.311Z,17.38
2022-10-02T12:18:54.621Z,17.22
2022-10-02T12:22:21.526Z,16.90
2022-10-02T12:25:59.511Z,16.74
2022-10-02T12:29:09.038Z,16.73
2022-10-02T12:32:30.783Z,16.70
2022-10-02T12:35:33.946Z,16.74
2022-10-02T12:38:36.117Z,16.56
2022-10-02T12:41:52.379Z,16.43
2022-10-02T12:45:11.515Z,16.26
2022-10-02T12:48:31.887Z,16.29
2022-10-02T12:51:55.213Z,16.29
2022-10-02T12:54:58.197Z,16.33
2022-10-02T12:58:07.140Z,16.26
2022-10-02T13:01:17.168Z,16.16
2022-10-02T13:04:29.372Z,16.21
2022-10-02T13:07:52.113Z,16.19
2022-10-02T13:10:57.839Z,16.36
2022-10-02T13:14:12.477Z,16.56
2022-10-02T13:17:36.641Z,16.56
2022-10-02T13:20:41.146Z,16.69
2022-10-02T13:23:53.576Z,16.53
2022-10-02T13:27:16.966Z,16.55
2022-10-02T13:30:19.716Z,16.67
2022-10-02T13:33:22.023Z,16.76
2022-10-02T13:36:38.492Z,16.73
2022-10-02T13:39:47.038Z,16.71
2022-10-02T13:43:06.392Z,16.48
2022-10-02T13:46:22.534Z,16.43
2022-10-02T13:49:48.105Z,16.36
2022-10-02T13:53:09.235Z,16.32
2022-10-02T13:56:22.274Z,16.25
2022-10-02T13:59:32.328Z,16.25
2022-10-02T14:02:35.190Z,16.28
2022-10-02T14:09:07.196Z,16.42
2022-10-02T14:12:28.209Z,16.49
2022-10-02T14:15:33.490Z,16.38
2022-10-02T14:18:55.606Z,16.39
2022-10-02T14:22:09.440Z,16.37
2022-10-02T14:25:29.332Z,16.40
2022-10-02T14:29:08.884Z,16.41
2022-10-02T14:32:21.714Z,16.33
2022-10-02T14:35:33.204Z,16.20
2022-10-02T14:38:53.300Z,16.13
2022-10-02T14:42:11.067Z,16.12
2022-10-02T14:45:32.718Z,16.12
2022-10-02T14:48:54.128Z,15.99
2022-10-02T14:52:06.259Z,15.89
2022-10-02T14:55:28.426Z,15.80
2022-10-02T14:58:46.571Z,15.76
2022-10-02T15:01:55.196Z,15.71
2022-10-02T15:05:21.985Z,15.66
2022-10-02T15:08:27.985Z,15.58
2022-10-02T15:11:37.240Z,15.53
2022-10-02T15:14:58.221Z,15.47
2022-10-02T15:18:03.776Z,15.38
2022-10-02T15:21:18.518Z,15.41
2022-10-02T15:24:34.996Z,15.41
2022-10-02T15:27:53.779Z,15.38
2022-10-02T15:31:01.652Z,15.31
2022-10-02T15:34:17.218Z,15.22
2022-10-02T15:37:29.725Z,15.23
2022-10-02T15:41:01.104Z,15.10
2022-10-02T15:44:16.176Z,15.04
2022-10-02T15:47:18.176Z,15.00
2022-10-02T15:50:39.463Z,14.97
2022-10-02T15:53:41.943Z,14.87
2022-10-02T15:57:08.875Z,14.75
2022-10-02T16:00:16.909Z,14.71
2022-10-02T16:03:23.170Z,14.61
2022-10-02T16:06:41.317Z,14.57
2022-10-02T16:10:08.226Z,14.52
2022-10-02T16:13:29.607Z,14.42
2022-10-02T16:16:41.000Z,14.44
2022-10-02T16:20:03.341Z,14.40
2022-10-02T16:23:32.482Z,14.29
2022-10-02T16:26:39.399Z,14.23
2022-10-02T16:29:54.568Z,14.20
2022-10-02T16:32:57.202Z,14.19
2022-10-02T16:36:19.293Z,14.18
2022-10-02T16:39:34.199Z,14.17
2022-10-02T16:42:40.678Z,14.18
2022-10-02T16:45:56.757Z,14.17
2022-10-02T16:49:17.480Z,14.23
2022-10-02T16:52:42.053Z,14.17
2022-10-02T16:55:48.242Z,14.14
2022-10-02T16:58:51.354Z,14.07
2022-10-02T17:02:16.839Z,14.09
2022-10-02T17:05:24.198Z,14.03
2022-10-02T17:08:56.316Z,14.04
2022-10-02T17:12:16.477Z,14.00
2022-10-02T17:15:39.794Z,13.94
2022-10-02T17:18:47.822Z,13.96
2022-10-02T17:22:09.426Z,13.96
2022-10-02T17:25:30.542Z,13.94
2022-10-02T17:28:52.579Z,13.87
2022-10-02T17:31:59.016Z,13.91
2022-10-02T17:35:02.113Z,13.85
2022-10-02T17:38:07.066Z,13.86
2022-10-02T17:41:09.630Z,13.84
2022-10-02T17:44:39.900Z,13.82
2022-10-02T17:48:02.107Z,13.84
2022-10-02T17:51:24.477Z,13.89
2022-10-02T17:54:51.988Z,13.83
2022-10-02T17:58:01.161Z,13.82
2022-10-02T18:01:07.295Z,13.82
2022-10-02T18:04:26.343Z,13.80
2022-10-02T18:07:28.319Z,13.81
2022-10-02T18:10:56.916Z,13.76
2022-10-02T18:14:26.497Z,13.74
2022-10-02T18:17:47.934Z,13.79
2022-10-02T18:20:54.247Z,13.71
2022-10-02T18:24:14.918Z,13.68
2022-10-02T18:27:30.491Z,13.71
2022-10-02T18:30:44.331Z,13.69
2022-10-02T18:33:57.176Z,13.62
2022-10-02T18:37:10.688Z,13.59
2022-10-02T18:40:16.239Z,13.62
2022-10-02T18:43:19.618Z,13.59
2022-10-02T18:46:33.769Z,13.66
2022-10-02T18:49:55.102Z,13.63
2022-10-02T18:53:23.400Z,13.66
2022-10-02T18:56:45.438Z,13.66
2022-10-02T19:00:00.326Z,13.67
2022-10-02T19:03:21.485Z,13.72
2022-10-02T19:06:32.482Z,13.74
2022-10-02T19:09:35.677Z,13.76
2022-10-02T19:12:42.942Z,13.70
2022-10-02T19:15:47.320Z,13.74
2022-10-02T19:18:50.333Z,13.77
2022-10-02T19:21:59.036Z,13.73
2022-10-02T19:25:16.829Z,13.65
2022-10-02T19:28:24.937Z,13.66
2022-10-02T19:31:29.920Z,13.66
2022-10-02T19:34:32.623Z,13.65
2022-10-02T19:37:42.293Z,13.65
2022-10-02T19:40:52.152Z,13.64
2022-10-02T19:44:01.677Z,13.62
2022-10-02T19:47:11.768Z,13.63
2022-10-02T19:50:22.496Z,13.64
2022-10-02T19:53:47.963Z,13.60
2022-10-02T19:56:54.527Z,13.60
2022-10-02T19:59:57.468Z,13.59
2022-10-02T20:03:00.765Z,13.56
2022-10-02T20:06:13.539Z,13.52
2022-10-02T20:09:38.726Z,13.60
2022-10-02T20:12:49.320Z,13.54
2022-10-02T20:16:15.285Z,13.54
2022-10-02T20:19:36.519Z,13.60
2022-10-02T20:22:42.191Z,13.54
2022-10-02T20:25:59.431Z,13.51
2022-10-02T20:29:08.863Z,13.40
2022-10-02T20:32:30.756Z,13.41
2022-10-02T20:35:45.750Z,13.36
2022-10-02T20:38:52.346Z,13.37
2022-10-02T20:41:58.024Z,13.33
2022-10-02T20:45:00.929Z,13.32
2022-10-02T20:48:49.205Z,13.29
2022-10-02T20:51:55.927Z,13.27
2022-10-02T20:55:10.772Z,13.17
2022-10-02T20:58:13.983Z,13.22
2022-10-02T21:01:21.351Z,13.27
2022-10-02T21:04:38.497Z,13.19
2022-10-02T21:08:00.554Z,13.20
2022-10-02T21:11:13.961Z,13.21
2022-10-02T21:14:17.260Z,13.27
2022-10-02T21:17:38.856Z,13.26
2022-10-02T21:20:51.167Z,13.23
2022-10-02T21:24:14.591Z,13.16
2022-10-02T21:27:23.747Z,13.14
2022-10-02T21:30:34.589Z,13.18
2022-10-02T21:33:40.950Z,13.10
2022-10-02T21:36:50.364Z,13.10
2022-10-02T21:40:11.069Z,13.11
2022-10-02T21:43:32.434Z,13.12
2022-10-02T21:46:37.986Z,13.10
2022-10-02T21:49:56.552Z,13.14
2022-10-02T21:53:14.766Z,13.12
2022-10-02T21:56:32.832Z,13.14
2022-10-02T21:59:54.030Z,13.14
2022-10-02T22:03:01.634Z,13.20
2022-10-02T22:06:20.713Z,13.19
2022-10-02T22:09:28.720Z,13.15
2022-10-02T22:12:46.708Z,13.15
2022-10-02T22:16:05.496Z,13.13
2022-10-02T22:19:08.121Z,13.04
2022-10-02T22:22:18.591Z,13.03
2022-10-02T22:25:22.152Z,13.02
2022-10-02T22:28:37.050Z,13.02
2022-10-02T22:31:39.848Z,13.06
2022-10-02T22:34:48.882Z,13.03
2022-10-02T22:38:09.468Z,13.02
2022-10-02T22:41:21.169Z,13.00
2022-10-02T22:44:29.918Z,13.02
2022-10-02T22:47:51.530Z,13.03
2022-10-02T22:51:01.566Z,13.05
2022-10-02T22:54:07.338Z,13.02
2022-10-02T22:57:16.906Z,12.98
2022-10-02T23:00:24.687Z,12.90
2022-10-02T23:04:05.981Z,12.90
2022-10-02T23:07:40.625Z,12.94
2022-10-02T23:10:45.753Z,12.93
2022-10-02T23:13:55.011Z,12.88
2022-10-02T23:17:06.908Z,12.91
2022-10-02T23:20:30.973Z,12.93
2022-10-02T23:23:58.750Z,12.95
2022-10-02T23:27:13.314Z,12.92
2022-10-02T23:30:19.894Z,12.96
2022-10-02T23:33:28.312Z,12.92
2022-10-02T23:36:37.948Z,12.89
2022-10-02T23:39:47.504Z,12.87
2022-10-02T23:42:53.358Z,12.84
2022-10-02T23:46:11.213Z,12.82
2022-10-02T23:49:13.898Z,12.87
2022-10-02T23:52:19.526Z,12.85
2022-10-02T23:55:40.942Z,12.84
2022-10-02T23:59:10.285Z,12.82
